This is the latest recevied weather packets stored in our database for station/object M0UPS-13. If no packets are shown the sender has not sent any weather packets the latest 10 day(s).
| Time | Temp. | Humidity | Pressure | Rain* | Wind** | Luminosity | Snow |
|---|---|---|---|---|---|---|---|
| 1777824603 | 18.89° C | 57% | 1009.3 hPa | 0 mm | - | 307 W/m² | - |
| 1777824302 | 19.44° C | 57% | 1009.2 hPa | 0 mm | - | 134 W/m² | - |
| 1777824002 | 20° C | 55% | 1009.2 hPa | 0 mm | - | 161 W/m² | - |
| 1777823702 | 20.56° C | 53% | 1009.3 hPa | 0 mm | - | 332 W/m² | - |
| 1777823403 | 20° C | 53% | 1009.4 hPa | 0 mm | - | 379 W/m² | - |
| 1777823103 | 20° C | 53% | 1009.3 hPa | 0 mm | - | 434 W/m² | - |
| 1777822802 | 19.44° C | 56% | 1009.2 hPa | 0 mm | - | 396 W/m² | - |
| 1777822502 | 20° C | 55% | 1009.2 hPa | 0 mm | - | 212 W/m² | - |
| 1777822202 | 20.56° C | 53% | 1009.5 hPa | 0 mm | - | 170 W/m² | - |
| 1777821902 | 20.56° C | 53% | 1009.4 hPa | 0 mm | - | 292 W/m² | - |
| 1777821602 | 21.11° C | 52% | 1009.4 hPa | 0 mm | - | 470 W/m² | - |
| 1777821302 | 20° C | 54% | 1009.4 hPa | 0 mm | - | 471 W/m² | - |
| 1777821002 | 20° C | 56% | 1009.3 hPa | 0 mm | - | 418 W/m² | - |
| 1777820702 | 20° C | 54% | 1009.3 hPa | 0 mm | - | 252 W/m² | - |
| 1777820402 | 20° C | 53% | 1009.4 hPa | 0 mm | - | 295 W/m² | - |
| 1777820102 | 20° C | 54% | 1009.3 hPa | 0 mm | - | 518 W/m² | - |
| 1777819802 | 19.44° C | 55% | 1009.5 hPa | 0 mm | - | 574 W/m² | - |
| 1777819503 | 18.89° C | 58% | 1009.5 hPa | 0 mm | - | 446 W/m² | - |
| 1777819202 | 19.44° C | 57% | 1009.5 hPa | 0 mm | - | 221 W/m² | - |
| 1777818902 | 19.44° C | 57% | 1009.5 hPa | 0 mm | - | 216 W/m² | - |
| 1777818602 | 19.44° C | 56% | 1009.5 hPa | 0 mm | - | 246 W/m² | - |
| 1777818303 | 19.44° C | 56% | 1009.6 hPa | 0 mm | - | 247 W/m² | - |
| 1777818002 | 20° C | 54% | 1009.5 hPa | 0 mm | - | 289 W/m² | - |
| 1777817703 | 20.56° C | 53% | 1009.6 hPa | 0 mm | - | 336 W/m² | - |
| 1777817402 | 20° C | 55% | 1009.6 hPa | 0 mm | - | 758 W/m² | - |
* Rain latest hour (hover to see other rain measurements)
** Current wind speed in m/s (hover to see current wind gust speed)